sensor_id;sensor_type;location;lat;lon;timestamp;P1;durP1;ratioP1;P2;durP2;ratioP2
40757;SDS011;26462;47.384;19.218;2023-04-16T00:02:11;24.98;;;14.77;;
40757;SDS011;26462;47.384;19.218;2023-04-16T00:04:39;31.65;;;16.75;;
40757;SDS011;26462;47.384;19.218;2023-04-16T00:07:08;29.48;;;16.27;;
40757;SDS011;26462;47.384;19.218;2023-04-16T00:09:35;30.80;;;15.85;;
40757;SDS011;26462;47.384;19.218;2023-04-16T00:12:02;28.83;;;16.70;;
40757;SDS011;26462;47.384;19.218;2023-04-16T00:14:30;26.75;;;16.15;;
40757;SDS011;26462;47.384;19.218;2023-04-16T00:16:57;30.08;;;15.13;;
40757;SDS011;26462;47.384;19.218;2023-04-16T00:19:24;30.65;;;15.43;;
40757;SDS011;26462;47.384;19.218;2023-04-16T00:21:52;27.15;;;15.65;;
40757;SDS011;26462;47.384;19.218;2023-04-16T00:24:19;31.55;;;15.07;;
40757;SDS011;26462;47.384;19.218;2023-04-16T00:26:46;28.75;;;15.30;;
40757;SDS011;26462;47.384;19.218;2023-04-16T00:29:13;26.15;;;13.98;;
40757;SDS011;26462;47.384;19.218;2023-04-16T00:31:40;25.10;;;13.30;;
40757;SDS011;26462;47.384;19.218;2023-04-16T00:34:08;22.80;;;13.35;;
40757;SDS011;26462;47.384;19.218;2023-04-16T00:36:35;22.85;;;12.05;;
40757;SDS011;26462;47.384;19.218;2023-04-16T00:39:02;24.00;;;12.35;;
40757;SDS011;26462;47.384;19.218;2023-04-16T00:41:29;24.73;;;12.75;;
40757;SDS011;26462;47.384;19.218;2023-04-16T00:43:56;23.17;;;13.15;;
40757;SDS011;26462;47.384;19.218;2023-04-16T00:46:23;22.65;;;12.45;;
40757;SDS011;26462;47.384;19.218;2023-04-16T00:48:52;23.67;;;11.75;;
40757;SDS011;26462;47.384;19.218;2023-04-16T00:51:20;20.02;;;11.45;;
40757;SDS011;26462;47.384;19.218;2023-04-16T00:53:47;20.05;;;10.93;;
40757;SDS011;26462;47.384;19.218;2023-04-16T00:56:15;20.90;;;11.10;;
40757;SDS011;26462;47.384;19.218;2023-04-16T00:58:43;22.95;;;12.07;;
40757;SDS011;26462;47.384;19.218;2023-04-16T01:01:11;20.80;;;10.93;;
40757;SDS011;26462;47.384;19.218;2023-04-16T01:03:42;21.58;;;11.30;;
40757;SDS011;26462;47.384;19.218;2023-04-16T01:06:11;20.52;;;10.70;;
40757;SDS011;26462;47.384;19.218;2023-04-16T01:08:39;23.38;;;11.48;;
40757;SDS011;26462;47.384;19.218;2023-04-16T01:11:06;20.13;;;11.32;;
40757;SDS011;26462;47.384;19.218;2023-04-16T01:13:33;20.67;;;11.38;;
40757;SDS011;26462;47.384;19.218;2023-04-16T01:16:08;19.00;;;10.82;;
40757;SDS011;26462;47.384;19.218;2023-04-16T01:18:36;20.47;;;11.40;;
40757;SDS011;26462;47.384;19.218;2023-04-16T01:21:04;20.33;;;11.15;;
40757;SDS011;26462;47.384;19.218;2023-04-16T01:23:32;19.40;;;11.00;;
40757;SDS011;26462;47.384;19.218;2023-04-16T01:25:59;18.13;;;10.48;;
40757;SDS011;26462;47.384;19.218;2023-04-16T01:28:26;19.35;;;10.05;;
40757;SDS011;26462;47.384;19.218;2023-04-16T01:30:53;18.38;;;10.00;;
40757;SDS011;26462;47.384;19.218;2023-04-16T01:33:40;19.08;;;10.23;;
40757;SDS011;26462;47.384;19.218;2023-04-16T01:36:10;17.83;;;10.57;;
40757;SDS011;26462;47.384;19.218;2023-04-16T01:38:37;19.40;;;10.10;;
40757;SDS011;26462;47.384;19.218;2023-04-16T01:41:04;18.73;;;10.52;;
40757;SDS011;26462;47.384;19.218;2023-04-16T01:43:31;18.13;;;10.27;;
40757;SDS011;26462;47.384;19.218;2023-04-16T01:46:07;19.17;;;9.73;;
40757;SDS011;26462;47.384;19.218;2023-04-16T01:49:00;18.55;;;9.55;;
40757;SDS011;26462;47.384;19.218;2023-04-16T01:51:28;14.70;;;8.50;;
40757;SDS011;26462;47.384;19.218;2023-04-16T01:53:55;19.23;;;9.93;;
40757;SDS011;26462;47.384;19.218;2023-04-16T01:56:23;15.95;;;8.75;;
40757;SDS011;26462;47.384;19.218;2023-04-16T01:58:51;19.13;;;9.82;;
40757;SDS011;26462;47.384;19.218;2023-04-16T02:01:19;19.52;;;10.10;;
40757;SDS011;26462;47.384;19.218;2023-04-16T02:03:47;21.40;;;10.07;;
40757;SDS011;26462;47.384;19.218;2023-04-16T02:06:14;17.27;;;10.02;;
40757;SDS011;26462;47.384;19.218;2023-04-16T02:08:42;20.73;;;10.73;;
40757;SDS011;26462;47.384;19.218;2023-04-16T02:11:09;20.25;;;10.20;;
40757;SDS011;26462;47.384;19.218;2023-04-16T02:13:36;20.13;;;10.70;;
40757;SDS011;26462;47.384;19.218;2023-04-16T02:16:03;15.95;;;9.80;;
40757;SDS011;26462;47.384;19.218;2023-04-16T02:18:58;16.00;;;9.77;;
40757;SDS011;26462;47.384;19.218;2023-04-16T02:21:28;18.13;;;10.38;;
40757;SDS011;26462;47.384;19.218;2023-04-16T02:23:57;17.05;;;9.43;;
40757;SDS011;26462;47.384;19.218;2023-04-16T02:26:27;21.42;;;9.93;;
40757;SDS011;26462;47.384;19.218;2023-04-16T02:31:35;18.52;;;9.68;;
40757;SDS011;26462;47.384;19.218;2023-04-16T02:34:02;16.85;;;9.07;;
40757;SDS011;26462;47.384;19.218;2023-04-16T02:36:30;16.35;;;9.15;;
40757;SDS011;26462;47.384;19.218;2023-04-16T02:38:58;18.17;;;10.13;;
40757;SDS011;26462;47.384;19.218;2023-04-16T02:41:25;16.83;;;9.60;;
40757;SDS011;26462;47.384;19.218;2023-04-16T02:43:52;18.77;;;10.60;;
40757;SDS011;26462;47.384;19.218;2023-04-16T02:46:19;19.00;;;10.25;;
40757;SDS011;26462;47.384;19.218;2023-04-16T02:48:46;18.83;;;9.75;;
40757;SDS011;26462;47.384;19.218;2023-04-16T02:51:13;17.92;;;9.57;;
40757;SDS011;26462;47.384;19.218;2023-04-16T02:53:40;14.52;;;8.95;;
40757;SDS011;26462;47.384;19.218;2023-04-16T02:56:12;18.40;;;10.07;;
40757;SDS011;26462;47.384;19.218;2023-04-16T02:58:39;16.90;;;10.57;;
40757;SDS011;26462;47.384;19.218;2023-04-16T03:01:06;18.17;;;9.75;;
40757;SDS011;26462;47.384;19.218;2023-04-16T03:03:33;20.95;;;10.23;;
40757;SDS011;26462;47.384;19.218;2023-04-16T03:06:00;19.63;;;9.68;;
40757;SDS011;26462;47.384;19.218;2023-04-16T03:08:27;16.52;;;8.90;;
40757;SDS011;26462;47.384;19.218;2023-04-16T03:10:54;16.52;;;9.20;;
40757;SDS011;26462;47.384;19.218;2023-04-16T03:13:21;18.90;;;9.95;;
40757;SDS011;26462;47.384;19.218;2023-04-16T03:15:48;19.45;;;10.68;;
40757;SDS011;26462;47.384;19.218;2023-04-16T03:18:15;17.92;;;9.38;;
40757;SDS011;26462;47.384;19.218;2023-04-16T03:20:42;20.05;;;10.63;;
40757;SDS011;26462;47.384;19.218;2023-04-16T03:23:10;19.27;;;10.38;;
40757;SDS011;26462;47.384;19.218;2023-04-16T03:25:37;18.92;;;10.63;;
40757;SDS011;26462;47.384;19.218;2023-04-16T03:28:07;20.23;;;10.30;;
40757;SDS011;26462;47.384;19.218;2023-04-16T03:30:35;19.88;;;10.70;;
40757;SDS011;26462;47.384;19.218;2023-04-16T03:33:04;18.95;;;9.98;;
40757;SDS011;26462;47.384;19.218;2023-04-16T03:35:31;19.90;;;10.75;;
40757;SDS011;26462;47.384;19.218;2023-04-16T03:37:59;20.60;;;11.20;;
40757;SDS011;26462;47.384;19.218;2023-04-16T03:40:27;19.70;;;10.77;;
40757;SDS011;26462;47.384;19.218;2023-04-16T03:42:54;21.08;;;10.55;;
40757;SDS011;26462;47.384;19.218;2023-04-16T03:45:21;20.77;;;11.10;;
40757;SDS011;26462;47.384;19.218;2023-04-16T03:47:49;19.33;;;11.48;;
40757;SDS011;26462;47.384;19.218;2023-04-16T03:50:21;22.80;;;12.20;;
40757;SDS011;26462;47.384;19.218;2023-04-16T03:52:48;22.17;;;10.80;;
40757;SDS011;26462;47.384;19.218;2023-04-16T03:55:16;21.85;;;11.40;;
40757;SDS011;26462;47.384;19.218;2023-04-16T03:57:44;21.65;;;11.88;;
40757;SDS011;26462;47.384;19.218;2023-04-16T04:00:13;18.88;;;11.70;;
40757;SDS011;26462;47.384;19.218;2023-04-16T04:02:54;19.63;;;11.30;;
40757;SDS011;26462;47.384;19.218;2023-04-16T04:05:22;21.20;;;10.90;;
40757;SDS011;26462;47.384;19.218;2023-04-16T04:07:50;20.63;;;11.48;;
40757;SDS011;26462;47.384;19.218;2023-04-16T04:10:17;22.38;;;11.38;;
40757;SDS011;26462;47.384;19.218;2023-04-16T04:12:44;18.90;;;10.60;;
40757;SDS011;26462;47.384;19.218;2023-04-16T04:15:11;23.45;;;11.65;;
40757;SDS011;26462;47.384;19.218;2023-04-16T04:17:40;22.67;;;12.27;;
40757;SDS011;26462;47.384;19.218;2023-04-16T04:20:08;24.65;;;13.02;;
40757;SDS011;26462;47.384;19.218;2023-04-16T04:22:35;23.48;;;11.90;;
40757;SDS011;26462;47.384;19.218;2023-04-16T04:25:03;25.98;;;13.20;;
40757;SDS011;26462;47.384;19.218;2023-04-16T04:27:31;25.05;;;13.10;;
40757;SDS011;26462;47.384;19.218;2023-04-16T04:29:58;23.88;;;13.45;;
40757;SDS011;26462;47.384;19.218;2023-04-16T04:32:26;30.33;;;14.80;;
40757;SDS011;26462;47.384;19.218;2023-04-16T04:34:53;25.90;;;14.00;;
40757;SDS011;26462;47.384;19.218;2023-04-16T04:37:20;26.05;;;14.35;;
40757;SDS011;26462;47.384;19.218;2023-04-16T04:39:47;23.90;;;13.52;;
40757;SDS011;26462;47.384;19.218;2023-04-16T04:42:19;25.08;;;13.65;;
40757;SDS011;26462;47.384;19.218;2023-04-16T04:44:47;23.05;;;12.73;;
40757;SDS011;26462;47.384;19.218;2023-04-16T04:47:14;23.60;;;11.70;;
40757;SDS011;26462;47.384;19.218;2023-04-16T04:49:41;25.83;;;12.52;;
40757;SDS011;26462;47.384;19.218;2023-04-16T04:52:08;27.85;;;13.60;;
40757;SDS011;26462;47.384;19.218;2023-04-16T04:54:37;20.65;;;11.93;;
40757;SDS011;26462;47.384;19.218;2023-04-16T04:57:08;23.73;;;12.75;;
40757;SDS011;26462;47.384;19.218;2023-04-16T04:59:35;22.73;;;11.48;;
40757;SDS011;26462;47.384;19.218;2023-04-16T05:02:02;21.55;;;11.48;;
40757;SDS011;26462;47.384;19.218;2023-04-16T05:04:29;19.05;;;10.00;;
40757;SDS011;26462;47.384;19.218;2023-04-16T05:06:57;18.40;;;9.32;;
40757;SDS011;26462;47.384;19.218;2023-04-16T05:09:24;18.30;;;9.85;;
40757;SDS011;26462;47.384;19.218;2023-04-16T05:11:51;19.92;;;10.35;;
40757;SDS011;26462;47.384;19.218;2023-04-16T05:14:18;17.52;;;10.02;;
40757;SDS011;26462;47.384;19.218;2023-04-16T05:16:45;18.08;;;10.30;;
40757;SDS011;26462;47.384;19.218;2023-04-16T05:19:12;15.48;;;9.23;;
40757;SDS011;26462;47.384;19.218;2023-04-16T05:21:39;19.17;;;10.48;;
40757;SDS011;26462;47.384;19.218;2023-04-16T05:24:07;20.58;;;11.00;;
40757;SDS011;26462;47.384;19.218;2023-04-16T05:26:34;17.02;;;9.43;;
40757;SDS011;26462;47.384;19.218;2023-04-16T05:29:01;16.77;;;9.38;;
40757;SDS011;26462;47.384;19.218;2023-04-16T05:31:28;17.65;;;9.30;;
40757;SDS011;26462;47.384;19.218;2023-04-16T05:33:55;16.40;;;8.07;;
40757;SDS011;26462;47.384;19.218;2023-04-16T05:36:22;16.23;;;9.52;;
40757;SDS011;26462;47.384;19.218;2023-04-16T05:38:49;17.52;;;9.57;;
40757;SDS011;26462;47.384;19.218;2023-04-16T05:41:16;16.08;;;9.15;;
40757;SDS011;26462;47.384;19.218;2023-04-16T05:43:43;16.27;;;9.63;;
40757;SDS011;26462;47.384;19.218;2023-04-16T05:46:10;17.50;;;10.57;;
40757;SDS011;26462;47.384;19.218;2023-04-16T05:48:37;16.50;;;9.13;;
40757;SDS011;26462;47.384;19.218;2023-04-16T05:51:05;17.02;;;10.05;;
40757;SDS011;26462;47.384;19.218;2023-04-16T05:53:32;19.02;;;10.75;;
40757;SDS011;26462;47.384;19.218;2023-04-16T05:55:59;17.77;;;9.95;;
40757;SDS011;26462;47.384;19.218;2023-04-16T05:58:26;16.38;;;10.30;;
40757;SDS011;26462;47.384;19.218;2023-04-16T06:00:53;16.63;;;9.45;;
40757;SDS011;26462;47.384;19.218;2023-04-16T06:03:20;17.30;;;9.63;;
40757;SDS011;26462;47.384;19.218;2023-04-16T06:05:47;16.38;;;9.10;;
40757;SDS011;26462;47.384;19.218;2023-04-16T06:08:14;14.68;;;8.38;;
40757;SDS011;26462;47.384;19.218;2023-04-16T06:10:41;14.18;;;9.25;;
40757;SDS011;26462;47.384;19.218;2023-04-16T06:13:08;11.95;;;7.10;;
40757;SDS011;26462;47.384;19.218;2023-04-16T06:15:36;11.25;;;7.10;;
40757;SDS011;26462;47.384;19.218;2023-04-16T06:18:03;14.63;;;7.28;;
40757;SDS011;26462;47.384;19.218;2023-04-16T06:20:30;10.77;;;6.43;;
40757;SDS011;26462;47.384;19.218;2023-04-16T06:22:57;12.25;;;7.15;;
40757;SDS011;26462;47.384;19.218;2023-04-16T06:25:24;10.38;;;6.28;;
40757;SDS011;26462;47.384;19.218;2023-04-16T06:27:52;11.80;;;6.75;;
40757;SDS011;26462;47.384;19.218;2023-04-16T06:30:19;10.10;;;6.13;;
40757;SDS011;26462;47.384;19.218;2023-04-16T06:32:46;10.45;;;6.32;;
40757;SDS011;26462;47.384;19.218;2023-04-16T06:35:13;11.18;;;6.57;;
40757;SDS011;26462;47.384;19.218;2023-04-16T06:37:40;7.72;;;5.63;;
40757;SDS011;26462;47.384;19.218;2023-04-16T06:40:10;9.98;;;5.97;;
40757;SDS011;26462;47.384;19.218;2023-04-16T06:42:37;10.18;;;6.45;;
40757;SDS011;26462;47.384;19.218;2023-04-16T06:45:05;9.57;;;6.05;;
40757;SDS011;26462;47.384;19.218;2023-04-16T06:47:32;9.70;;;5.72;;
40757;SDS011;26462;47.384;19.218;2023-04-16T06:49:59;9.05;;;5.35;;
40757;SDS011;26462;47.384;19.218;2023-04-16T06:52:27;8.20;;;5.55;;
40757;SDS011;26462;47.384;19.218;2023-04-16T06:54:55;9.45;;;5.18;;
40757;SDS011;26462;47.384;19.218;2023-04-16T06:57:22;10.45;;;5.82;;
40757;SDS011;26462;47.384;19.218;2023-04-16T06:59:49;9.43;;;5.80;;
40757;SDS011;26462;47.384;19.218;2023-04-16T07:02:16;8.20;;;5.13;;
40757;SDS011;26462;47.384;19.218;2023-04-16T07:04:43;10.32;;;5.43;;
40757;SDS011;26462;47.384;19.218;2023-04-16T07:07:11;8.25;;;5.30;;
40757;SDS011;26462;47.384;19.218;2023-04-16T07:09:38;9.00;;;5.90;;
40757;SDS011;26462;47.384;19.218;2023-04-16T07:12:05;7.60;;;5.20;;
40757;SDS011;26462;47.384;19.218;2023-04-16T07:14:33;10.27;;;5.60;;
40757;SDS011;26462;47.384;19.218;2023-04-16T07:17:00;9.18;;;5.13;;
40757;SDS011;26462;47.384;19.218;2023-04-16T07:19:27;8.23;;;5.93;;
40757;SDS011;26462;47.384;19.218;2023-04-16T07:21:58;11.93;;;5.90;;
40757;SDS011;26462;47.384;19.218;2023-04-16T07:24:25;8.23;;;4.95;;
40757;SDS011;26462;47.384;19.218;2023-04-16T07:26:52;7.03;;;5.00;;
40757;SDS011;26462;47.384;19.218;2023-04-16T07:29:19;8.77;;;5.05;;
40757;SDS011;26462;47.384;19.218;2023-04-16T07:31:46;9.55;;;5.13;;
40757;SDS011;26462;47.384;19.218;2023-04-16T07:34:14;6.13;;;4.05;;
40757;SDS011;26462;47.384;19.218;2023-04-16T07:36:41;5.38;;;3.47;;
40757;SDS011;26462;47.384;19.218;2023-04-16T07:39:08;4.45;;;3.35;;
40757;SDS011;26462;47.384;19.218;2023-04-16T07:41:37;7.07;;;3.08;;
40757;SDS011;26462;47.384;19.218;2023-04-16T07:44:06;4.90;;;3.33;;
40757;SDS011;26462;47.384;19.218;2023-04-16T07:46:33;4.55;;;3.47;;
40757;SDS011;26462;47.384;19.218;2023-04-16T07:49:12;5.45;;;3.47;;
40757;SDS011;26462;47.384;19.218;2023-04-16T07:51:39;4.18;;;3.33;;
40757;SDS011;26462;47.384;19.218;2023-04-16T07:54:06;7.03;;;3.20;;
40757;SDS011;26462;47.384;19.218;2023-04-16T07:56:34;4.80;;;3.30;;
40757;SDS011;26462;47.384;19.218;2023-04-16T07:59:01;4.15;;;3.25;;
40757;SDS011;26462;47.384;19.218;2023-04-16T08:01:46;4.47;;;3.08;;
40757;SDS011;26462;47.384;19.218;2023-04-16T08:04:14;6.32;;;3.22;;
40757;SDS011;26462;47.384;19.218;2023-04-16T08:06:42;4.78;;;3.28;;
40757;SDS011;26462;47.384;19.218;2023-04-16T08:09:09;4.60;;;3.05;;
40757;SDS011;26462;47.384;19.218;2023-04-16T08:11:37;5.68;;;3.30;;
40757;SDS011;26462;47.384;19.218;2023-04-16T08:14:05;7.60;;;3.63;;
40757;SDS011;26462;47.384;19.218;2023-04-16T08:16:32;7.00;;;3.50;;
40757;SDS011;26462;47.384;19.218;2023-04-16T08:18:59;5.50;;;3.58;;
40757;SDS011;26462;47.384;19.218;2023-04-16T08:21:26;4.43;;;3.13;;
40757;SDS011;26462;47.384;19.218;2023-04-16T08:23:53;5.95;;;3.50;;
40757;SDS011;26462;47.384;19.218;2023-04-16T08:26:21;5.82;;;3.10;;
40757;SDS011;26462;47.384;19.218;2023-04-16T08:28:48;4.50;;;3.33;;
40757;SDS011;26462;47.384;19.218;2023-04-16T08:31:15;3.90;;;2.67;;
40757;SDS011;26462;47.384;19.218;2023-04-16T08:33:42;3.22;;;2.38;;
40757;SDS011;26462;47.384;19.218;2023-04-16T08:36:09;5.60;;;3.22;;
40757;SDS011;26462;47.384;19.218;2023-04-16T08:38:37;4.13;;;2.70;;
40757;SDS011;26462;47.384;19.218;2023-04-16T08:41:04;2.90;;;1.80;;
40757;SDS011;26462;47.384;19.218;2023-04-16T08:43:35;3.05;;;1.73;;
40757;SDS011;26462;47.384;19.218;2023-04-16T08:46:04;1.90;;;1.48;;
40757;SDS011;26462;47.384;19.218;2023-04-16T08:48:33;4.93;;;2.40;;
40757;SDS011;26462;47.384;19.218;2023-04-16T08:51:01;3.08;;;1.70;;
40757;SDS011;26462;47.384;19.218;2023-04-16T08:53:34;3.35;;;1.95;;
40757;SDS011;26462;47.384;19.218;2023-04-16T08:56:07;2.08;;;1.60;;
40757;SDS011;26462;47.384;19.218;2023-04-16T08:58:36;2.60;;;1.67;;
40757;SDS011;26462;47.384;19.218;2023-04-16T09:01:05;2.15;;;1.48;;
40757;SDS011;26462;47.384;19.218;2023-04-16T09:03:35;2.25;;;0.95;;
40757;SDS011;26462;47.384;19.218;2023-04-16T09:06:03;2.65;;;1.45;;
40757;SDS011;26462;47.384;19.218;2023-04-16T09:08:31;1.77;;;1.23;;
40757;SDS011;26462;47.384;19.218;2023-04-16T09:11:01;1.90;;;1.42;;
40757;SDS011;26462;47.384;19.218;2023-04-16T09:13:30;2.50;;;1.60;;
40757;SDS011;26462;47.384;19.218;2023-04-16T09:15:57;2.83;;;1.80;;
40757;SDS011;26462;47.384;19.218;2023-04-16T09:18:27;2.20;;;1.63;;
40757;SDS011;26462;47.384;19.218;2023-04-16T09:20:55;2.97;;;1.98;;
40757;SDS011;26462;47.384;19.218;2023-04-16T09:23:23;3.30;;;1.77;;
40757;SDS011;26462;47.384;19.218;2023-04-16T09:25:50;2.55;;;1.48;;
40757;SDS011;26462;47.384;19.218;2023-04-16T09:31:14;2.50;;;2.15;;
40757;SDS011;26462;47.384;19.218;2023-04-16T09:33:42;3.28;;;2.70;;
40757;SDS011;26462;47.384;19.218;2023-04-16T09:36:25;3.40;;;1.65;;
40757;SDS011;26462;47.384;19.218;2023-04-16T09:38:53;2.35;;;1.55;;
40757;SDS011;26462;47.384;19.218;2023-04-16T09:41:23;3.17;;;2.13;;
40757;SDS011;26462;47.384;19.218;2023-04-16T09:46:24;2.67;;;1.52;;
40757;SDS011;26462;47.384;19.218;2023-04-16T09:49:04;3.47;;;2.08;;
40757;SDS011;26462;47.384;19.218;2023-04-16T09:51:36;2.72;;;1.92;;
40757;SDS011;26462;47.384;19.218;2023-04-16T09:54:04;3.63;;;1.73;;
40757;SDS011;26462;47.384;19.218;2023-04-16T09:56:32;5.50;;;2.63;;
40757;SDS011;26462;47.384;19.218;2023-04-16T09:58:59;6.35;;;3.00;;
40757;SDS011;26462;47.384;19.218;2023-04-16T10:01:26;8.68;;;2.78;;
40757;SDS011;26462;47.384;19.218;2023-04-16T10:03:58;6.63;;;2.25;;
40757;SDS011;26462;47.384;19.218;2023-04-16T10:06:26;5.30;;;2.05;;
40757;SDS011;26462;47.384;19.218;2023-04-16T10:08:54;2.25;;;1.40;;
40757;SDS011;26462;47.384;19.218;2023-04-16T10:11:22;2.95;;;1.23;;
40757;SDS011;26462;47.384;19.218;2023-04-16T10:13:50;2.17;;;1.42;;
40757;SDS011;26462;47.384;19.218;2023-04-16T10:16:17;2.03;;;1.35;;
40757;SDS011;26462;47.384;19.218;2023-04-16T10:18:45;1.50;;;1.00;;
40757;SDS011;26462;47.384;19.218;2023-04-16T10:21:13;2.20;;;1.20;;
40757;SDS011;26462;47.384;19.218;2023-04-16T10:23:42;2.10;;;1.35;;
40757;SDS011;26462;47.384;19.218;2023-04-16T10:26:09;2.55;;;1.50;;
40757;SDS011;26462;47.384;19.218;2023-04-16T10:28:36;3.08;;;1.17;;
40757;SDS011;26462;47.384;19.218;2023-04-16T10:31:04;3.17;;;1.58;;
40757;SDS011;26462;47.384;19.218;2023-04-16T10:33:34;3.78;;;1.10;;
40757;SDS011;26462;47.384;19.218;2023-04-16T10:38:44;2.50;;;1.17;;
40757;SDS011;26462;47.384;19.218;2023-04-16T10:41:21;1.95;;;1.00;;
40757;SDS011;26462;47.384;19.218;2023-04-16T10:43:51;2.50;;;1.50;;
40757;SDS011;26462;47.384;19.218;2023-04-16T10:46:23;3.47;;;0.88;;
40757;SDS011;26462;47.384;19.218;2023-04-16T10:48:52;2.10;;;0.98;;
40757;SDS011;26462;47.384;19.218;2023-04-16T10:51:28;2.55;;;0.63;;
40757;SDS011;26462;47.384;19.218;2023-04-16T10:56:40;4.95;;;0.70;;
40757;SDS011;26462;47.384;19.218;2023-04-16T10:59:09;1.98;;;0.70;;
40757;SDS011;26462;47.384;19.218;2023-04-16T11:01:44;3.00;;;1.50;;
40757;SDS011;26462;47.384;19.218;2023-04-16T11:09:46;3.00;;;0.50;;
40757;SDS011;26462;47.384;19.218;2023-04-16T11:14:50;2.53;;;0.60;;
40757;SDS011;26462;47.384;19.218;2023-04-16T11:19:46;1.70;;;0.65;;
40757;SDS011;26462;47.384;19.218;2023-04-16T11:22:14;4.13;;;1.40;;
40757;SDS011;26462;47.384;19.218;2023-04-16T11:24:43;1.90;;;0.77;;
40757;SDS011;26462;47.384;19.218;2023-04-16T11:27:14;1.15;;;0.52;;
40757;SDS011;26462;47.384;19.218;2023-04-16T11:29:42;3.40;;;0.52;;
40757;SDS011;26462;47.384;19.218;2023-04-16T11:32:19;0.73;;;0.40;;
40757;SDS011;26462;47.384;19.218;2023-04-16T11:34:49;0.80;;;0.30;;
40757;SDS011;26462;47.384;19.218;2023-04-16T11:37:20;1.80;;;0.40;;
40757;SDS011;26462;47.384;19.218;2023-04-16T11:39:57;2.45;;;0.30;;
40757;SDS011;26462;47.384;19.218;2023-04-16T11:42:25;2.78;;;0.50;;
40757;SDS011;26462;47.384;19.218;2023-04-16T11:44:54;1.10;;;0.30;;
40757;SDS011;26462;47.384;19.218;2023-04-16T11:47:23;0.93;;;0.30;;
40757;SDS011;26462;47.384;19.218;2023-04-16T11:49:50;0.90;;;0.30;;
40757;SDS011;26462;47.384;19.218;2023-04-16T11:52:24;1.65;;;0.30;;
40757;SDS011;26462;47.384;19.218;2023-04-16T11:54:52;0.50;;;0.30;;
40757;SDS011;26462;47.384;19.218;2023-04-16T11:57:27;1.38;;;0.40;;
40757;SDS011;26462;47.384;19.218;2023-04-16T11:59:56;0.60;;;0.30;;
40757;SDS011;26462;47.384;19.218;2023-04-16T12:05:30;1.10;;;0.40;;
40757;SDS011;26462;47.384;19.218;2023-04-16T12:08:06;1.48;;;0.40;;
40757;SDS011;26462;47.384;19.218;2023-04-16T12:10:53;0.43;;;0.30;;
40757;SDS011;26462;47.384;19.218;2023-04-16T12:13:21;0.57;;;0.30;;
40757;SDS011;26462;47.384;19.218;2023-04-16T12:15:49;0.90;;;0.30;;
40757;SDS011;26462;47.384;19.218;2023-04-16T12:18:21;0.90;;;0.40;;
40757;SDS011;26462;47.384;19.218;2023-04-16T12:20:51;1.75;;;0.70;;
40757;SDS011;26462;47.384;19.218;2023-04-16T12:23:22;1.30;;;0.82;;
40757;SDS011;26462;47.384;19.218;2023-04-16T12:25:49;0.90;;;0.40;;
40757;SDS011;26462;47.384;19.218;2023-04-16T12:28:34;2.25;;;0.47;;
40757;SDS011;26462;47.384;19.218;2023-04-16T12:31:04;1.13;;;0.40;;
40757;SDS011;26462;47.384;19.218;2023-04-16T12:33:31;0.70;;;0.30;;
40757;SDS011;26462;47.384;19.218;2023-04-16T12:35:59;0.45;;;0.20;;
40757;SDS011;26462;47.384;19.218;2023-04-16T12:38:27;4.13;;;1.45;;
40757;SDS011;26462;47.384;19.218;2023-04-16T12:40:55;0.90;;;0.35;;
40757;SDS011;26462;47.384;19.218;2023-04-16T12:43:23;0.70;;;0.20;;
40757;SDS011;26462;47.384;19.218;2023-04-16T12:45:51;0.52;;;0.20;;
40757;SDS011;26462;47.384;19.218;2023-04-16T12:48:18;1.08;;;0.30;;
40757;SDS011;26462;47.384;19.218;2023-04-16T12:50:45;0.60;;;0.30;;
40757;SDS011;26462;47.384;19.218;2023-04-16T12:53:12;1.15;;;0.40;;
40757;SDS011;26462;47.384;19.218;2023-04-16T12:55:39;1.05;;;0.20;;
40757;SDS011;26462;47.384;19.218;2023-04-16T12:58:07;1.30;;;0.20;;
40757;SDS011;26462;47.384;19.218;2023-04-16T13:00:38;0.82;;;0.20;;
40757;SDS011;26462;47.384;19.218;2023-04-16T13:03:05;0.90;;;0.35;;
40757;SDS011;26462;47.384;19.218;2023-04-16T13:05:33;0.68;;;0.10;;
40757;SDS011;26462;47.384;19.218;2023-04-16T13:08:01;0.90;;;0.20;;
40757;SDS011;26462;47.384;19.218;2023-04-16T13:10:28;0.60;;;0.20;;
40757;SDS011;26462;47.384;19.218;2023-04-16T13:12:58;0.93;;;0.40;;
40757;SDS011;26462;47.384;19.218;2023-04-16T13:15:25;0.93;;;0.20;;
40757;SDS011;26462;47.384;19.218;2023-04-16T13:17:53;1.48;;;0.20;;
40757;SDS011;26462;47.384;19.218;2023-04-16T13:20:20;0.80;;;0.20;;
40757;SDS011;26462;47.384;19.218;2023-04-16T13:22:49;0.40;;;0.20;;
40757;SDS011;26462;47.384;19.218;2023-04-16T13:25:17;1.27;;;0.30;;
40757;SDS011;26462;47.384;19.218;2023-04-16T13:27:44;1.90;;;0.75;;
40757;SDS011;26462;47.384;19.218;2023-04-16T13:30:11;2.45;;;0.63;;
40757;SDS011;26462;47.384;19.218;2023-04-16T13:32:39;1.92;;;0.35;;
40757;SDS011;26462;47.384;19.218;2023-04-16T13:35:08;2.63;;;0.40;;
40757;SDS011;26462;47.384;19.218;2023-04-16T13:37:36;2.25;;;0.50;;
40757;SDS011;26462;47.384;19.218;2023-04-16T13:40:04;3.42;;;1.00;;
40757;SDS011;26462;47.384;19.218;2023-04-16T13:42:32;1.80;;;0.40;;
40757;SDS011;26462;47.384;19.218;2023-04-16T13:44:59;1.02;;;0.40;;
40757;SDS011;26462;47.384;19.218;2023-04-16T13:47:31;3.30;;;0.50;;
40757;SDS011;26462;47.384;19.218;2023-04-16T13:49:59;1.03;;;0.20;;
40757;SDS011;26462;47.384;19.218;2023-04-16T13:52:26;1.00;;;0.20;;
40757;SDS011;26462;47.384;19.218;2023-04-16T13:54:53;1.48;;;0.38;;
40757;SDS011;26462;47.384;19.218;2023-04-16T13:57:20;3.55;;;0.70;;
40757;SDS011;26462;47.384;19.218;2023-04-16T13:59:48;2.33;;;0.65;;
40757;SDS011;26462;47.384;19.218;2023-04-16T14:02:15;1.58;;;0.55;;
40757;SDS011;26462;47.384;19.218;2023-04-16T14:04:43;0.80;;;0.40;;
40757;SDS011;26462;47.384;19.218;2023-04-16T14:07:10;1.60;;;0.50;;
40757;SDS011;26462;47.384;19.218;2023-04-16T14:09:37;1.67;;;0.43;;
40757;SDS011;26462;47.384;19.218;2023-04-16T14:12:05;1.17;;;0.20;;
40757;SDS011;26462;47.384;19.218;2023-04-16T14:14:32;0.70;;;0.20;;
40757;SDS011;26462;47.384;19.218;2023-04-16T14:17:00;1.10;;;0.40;;
40757;SDS011;26462;47.384;19.218;2023-04-16T14:19:29;0.90;;;0.35;;
40757;SDS011;26462;47.384;19.218;2023-04-16T14:21:56;1.30;;;0.45;;
40757;SDS011;26462;47.384;19.218;2023-04-16T14:24:24;0.75;;;0.40;;
40757;SDS011;26462;47.384;19.218;2023-04-16T14:26:51;1.50;;;0.30;;
40757;SDS011;26462;47.384;19.218;2023-04-16T14:29:18;0.82;;;0.35;;
40757;SDS011;26462;47.384;19.218;2023-04-16T14:31:46;2.25;;;0.57;;
40757;SDS011;26462;47.384;19.218;2023-04-16T14:34:13;1.10;;;0.30;;
40757;SDS011;26462;47.384;19.218;2023-04-16T14:36:42;1.90;;;0.60;;
40757;SDS011;26462;47.384;19.218;2023-04-16T14:39:10;1.25;;;0.40;;
40757;SDS011;26462;47.384;19.218;2023-04-16T14:41:38;2.38;;;0.80;;
40757;SDS011;26462;47.384;19.218;2023-04-16T14:44:05;1.50;;;0.57;;
40757;SDS011;26462;47.384;19.218;2023-04-16T14:46:32;1.02;;;0.30;;
40757;SDS011;26462;47.384;19.218;2023-04-16T14:48:59;1.95;;;0.45;;
40757;SDS011;26462;47.384;19.218;2023-04-16T14:51:26;2.53;;;0.17;;
40757;SDS011;26462;47.384;19.218;2023-04-16T14:53:53;0.40;;;0.10;;
40757;SDS011;26462;47.384;19.218;2023-04-16T14:56:22;1.73;;;0.30;;
40757;SDS011;26462;47.384;19.218;2023-04-16T14:58:49;1.40;;;0.40;;